This is the latest recevied weather packets stored in our database for station/object KI5GCD-13. If no packets are shown the sender has not sent any weather packets the latest 1 day(s).
| Time | Temp. | Humidity | Pressure | Rain* | Wind** | Luminosity | Snow |
|---|---|---|---|---|---|---|---|
| 1778050187 | 8.33° C | 95% | 1009.5 hPa | 0 mm | 1.34 m/s, 283° | - | - |
| 1778049887 | 8.33° C | 95% | 1009.5 hPa | 0 mm | 0 m/s | - | - |
| 1778049587 | 8.33° C | 95% | 1009.5 hPa | 0 mm | 0.89 m/s, 290° | - | - |
| 1778048987 | 8.33° C | 95% | 1009.2 hPa | 0 mm | 2.68 m/s, 58° | - | - |
| 1778048687 | 8.33° C | 97% | 1009.3 hPa | 0 mm | 0.45 m/s, 255° | - | - |
| 1778048087 | 7.78° C | 98% | 1009.2 hPa | 0 mm | 0.45 m/s, 269° | - | - |
| 1778047787 | 7.78° C | 98% | 1009.2 hPa | 0 mm | 0.45 m/s, 299° | - | - |
| 1778046887 | 7.78° C | 99% | 1009.2 hPa | 0 mm | 0.45 m/s, 228° | - | - |
| 1778046587 | 7.78° C | 99% | 1009.5 hPa | 0 mm | 0.89 m/s, 18° | - | - |
| 1778046287 | 7.78° C | 99% | 1009.5 hPa | 0 mm | 0 m/s | - | - |
| 1778045688 | 7.78° C | 99% | 1009.7 hPa | 0 mm | 1.34 m/s, 55° | - | - |
| 1778045387 | 7.78° C | 99% | 1009.9 hPa | 0 mm | 0.89 m/s, 288° | - | - |
| 1778045087 | 8.33° C | 99% | 1009.8 hPa | 0 mm | 1.34 m/s, 315° | - | - |
| 1778044787 | 7.78° C | 99% | 1009.8 hPa | 0 mm | 0 m/s | - | - |
| 1778044187 | 8.33° C | 99% | 1009.8 hPa | 0 mm | 0 m/s | - | - |
| 1778043887 | 8.33° C | 98% | 1009.6 hPa | 0 mm | 0 m/s | - | - |
| 1778043588 | 8.33° C | 98% | 1009.5 hPa | 0 mm | 0.45 m/s, 162° | - | - |
| 1778043287 | 7.78° C | 98% | 1009.3 hPa | 0 mm | 1.34 m/s, 63° | - | - |
| 1778042987 | 8.33° C | 98% | 1009.5 hPa | 0 mm | 0 m/s | - | - |
| 1778042687 | 8.33° C | 97% | 1009.5 hPa | 0 mm | 0.89 m/s, 53° | - | - |
| 1778042387 | 8.33° C | 97% | 1009.2 hPa | 0 mm | 1.34 m/s, 77° | - | - |
| 1778041787 | 8.33° C | 96% | 1009.2 hPa | 0 mm | 0.89 m/s, 112° | - | - |
| 1778041487 | 8.33° C | 96% | 1008.9 hPa | 0 mm | 1.34 m/s, 20° | - | - |
| 1778041187 | 8.33° C | 96% | 1009.1 hPa | 0 mm | 0.45 m/s, 258° | - | - |
| 1778040887 | 8.33° C | 97% | 1009.1 hPa | 0 mm | 2.24 m/s, 20° | - | - |
* Rain latest hour (hover to see other rain measurements)
** Current wind speed in m/s (hover to see current wind gust speed)